sensor_id;sensor_type;location;lat;lon;timestamp;pressure;altitude;pressure_sealevel;temperature;humidity
12799;BME280;19250;42.646;26.980;2022-09-16T00:01:25;98229.94;;;23.69;87.03
12799;BME280;19250;42.646;26.980;2022-09-16T00:03:54;98230.69;;;24.07;84.11
12799;BME280;19250;42.646;26.980;2022-09-16T00:06:23;98237.91;;;24.28;82.26
12799;BME280;19250;42.646;26.980;2022-09-16T00:08:53;98204.06;;;24.19;81.28
12799;BME280;19250;42.646;26.980;2022-09-16T00:11:23;98242.03;;;24.30;81.55
12799;BME280;19250;42.646;26.980;2022-09-16T00:13:50;98237.72;;;24.50;80.37
12799;BME280;19250;42.646;26.980;2022-09-16T00:16:22;98245.66;;;24.51;80.48
12799;BME280;19250;42.646;26.980;2022-09-16T00:18:52;98247.84;;;23.65;84.91
12799;BME280;19250;42.646;26.980;2022-09-16T00:21:21;98245.44;;;23.69;85.49
12799;BME280;19250;42.646;26.980;2022-09-16T00:23:48;98249.34;;;23.46;86.67
12799;BME280;19250;42.646;26.980;2022-09-16T00:26:16;98245.53;;;23.47;87.33
12799;BME280;19250;42.646;26.980;2022-09-16T00:28:47;98238.88;;;23.33;87.95
12799;BME280;19250;42.646;26.980;2022-09-16T00:31:15;98228.94;;;23.49;87.05
12799;BME280;19250;42.646;26.980;2022-09-16T00:33:43;98252.22;;;23.66;86.29
12799;BME280;19250;42.646;26.980;2022-09-16T00:36:12;98241.16;;;23.46;87.29
12799;BME280;19250;42.646;26.980;2022-09-16T00:38:39;98218.13;;;23.27;87.26
12799;BME280;19250;42.646;26.980;2022-09-16T00:41:08;98245.78;;;23.46;87.02
12799;BME280;19250;42.646;26.980;2022-09-16T00:43:54;98242.41;;;23.65;85.10
12799;BME280;19250;42.646;26.980;2022-09-16T00:46:26;98256.03;;;22.80;90.23
12799;BME280;19250;42.646;26.980;2022-09-16T00:48:56;98253.50;;;22.73;91.90
12799;BME280;19250;42.646;26.980;2022-09-16T00:51:24;98253.28;;;23.33;87.95
12799;BME280;19250;42.646;26.980;2022-09-16T00:53:54;98262.06;;;23.72;85.65
12799;BME280;19250;42.646;26.980;2022-09-16T00:56:26;98259.03;;;24.06;83.59
12799;BME280;19250;42.646;26.980;2022-09-16T00:59:00;98221.69;;;23.59;83.94
12799;BME280;19250;42.646;26.980;2022-09-16T01:01:30;98252.16;;;23.03;88.40
12799;BME280;19250;42.646;26.980;2022-09-16T01:04:02;98245.59;;;22.50;92.41
12799;BME280;19250;42.646;26.980;2022-09-16T01:06:31;98248.81;;;23.22;88.75
12799;BME280;19250;42.646;26.980;2022-09-16T01:09:01;98245.03;;;23.55;86.11
12799;BME280;19250;42.646;26.980;2022-09-16T01:11:29;98245.22;;;23.75;83.97
12799;BME280;19250;42.646;26.980;2022-09-16T01:13:58;98240.66;;;23.49;85.13
12799;BME280;19250;42.646;26.980;2022-09-16T01:16:51;98239.97;;;23.37;86.15
12799;BME280;19250;42.646;26.980;2022-09-16T01:19:36;98240.56;;;22.86;88.90
12799;BME280;19250;42.646;26.980;2022-09-16T01:22:18;98241.59;;;23.06;87.41
12799;BME280;19250;42.646;26.980;2022-09-16T01:24:52;98228.50;;;23.03;87.66
12799;BME280;19250;42.646;26.980;2022-09-16T01:27:35;98238.72;;;23.18;87.32
12799;BME280;19250;42.646;26.980;2022-09-16T01:30:34;98238.97;;;23.43;85.14
12799;BME280;19250;42.646;26.980;2022-09-16T01:33:03;98097.34;;;22.64;84.84
12799;BME280;19250;42.646;26.980;2022-09-16T01:35:55;98252.78;;;22.83;88.26
12799;BME280;19250;42.646;26.980;2022-09-16T01:38:36;98247.47;;;23.52;85.30
12799;BME280;19250;42.646;26.980;2022-09-16T01:41:11;98228.19;;;23.58;83.47
12799;BME280;19250;42.646;26.980;2022-09-16T01:43:49;98243.13;;;23.88;81.95
12799;BME280;19250;42.646;26.980;2022-09-16T01:46:29;98253.53;;;23.64;83.67
12799;BME280;19250;42.646;26.980;2022-09-16T01:49:01;98220.31;;;23.57;82.58
12799;BME280;19250;42.646;26.980;2022-09-16T01:51:41;98243.34;;;23.81;82.36
12799;BME280;19250;42.646;26.980;2022-09-16T01:54:13;98255.59;;;23.78;81.81
12799;BME280;19250;42.646;26.980;2022-09-16T01:56:47;98252.94;;;22.98;85.97
12799;BME280;19250;42.646;26.980;2022-09-16T01:59:22;98211.97;;;22.35;89.96
12799;BME280;19250;42.646;26.980;2022-09-16T02:01:56;98258.13;;;23.00;86.86
12799;BME280;19250;42.646;26.980;2022-09-16T02:04:30;98273.09;;;23.29;84.59
12799;BME280;19250;42.646;26.980;2022-09-16T02:07:01;98270.19;;;23.36;83.63
12799;BME280;19250;42.646;26.980;2022-09-16T02:09:33;98259.59;;;22.64;87.21
12799;BME280;19250;42.646;26.980;2022-09-16T02:12:09;98248.72;;;22.20;89.81
12799;BME280;19250;42.646;26.980;2022-09-16T02:14:41;98247.81;;;21.93;91.92
12799;BME280;19250;42.646;26.980;2022-09-16T02:17:12;98250.25;;;22.33;89.33
12799;BME280;19250;42.646;26.980;2022-09-16T02:19:42;98257.38;;;22.39;89.19
12799;BME280;19250;42.646;26.980;2022-09-16T02:22:13;98260.47;;;22.48;89.00
12799;BME280;19250;42.646;26.980;2022-09-16T02:24:42;98262.19;;;22.75;86.29
12799;BME280;19250;42.646;26.980;2022-09-16T02:27:13;98135.31;;;22.06;85.20
12799;BME280;19250;42.646;26.980;2022-09-16T02:29:45;98265.72;;;22.98;84.84
12799;BME280;19250;42.646;26.980;2022-09-16T02:32:18;98269.94;;;22.84;85.68
12799;BME280;19250;42.646;26.980;2022-09-16T02:34:48;98270.75;;;22.84;85.38
12799;BME280;19250;42.646;26.980;2022-09-16T02:37:19;98246.41;;;22.72;85.31
12799;BME280;19250;42.646;26.980;2022-09-16T02:39:50;98266.94;;;23.12;83.90
12799;BME280;19250;42.646;26.980;2022-09-16T02:42:19;98250.31;;;22.82;85.53
12799;BME280;19250;42.646;26.980;2022-09-16T02:44:47;98263.31;;;22.74;85.41
12799;BME280;19250;42.646;26.980;2022-09-16T02:47:22;98253.31;;;22.80;85.36
12799;BME280;19250;42.646;26.980;2022-09-16T02:49:56;98255.31;;;22.90;84.07
12799;BME280;19250;42.646;26.980;2022-09-16T02:52:30;98267.75;;;22.86;85.33
12799;BME280;19250;42.646;26.980;2022-09-16T02:55:04;98272.06;;;22.82;85.51
12799;BME280;19250;42.646;26.980;2022-09-16T02:57:39;98283.22;;;22.63;85.97
12799;BME280;19250;42.646;26.980;2022-09-16T03:00:08;98276.88;;;22.96;84.46
12799;BME280;19250;42.646;26.980;2022-09-16T03:02:37;98276.28;;;22.94;83.80
12799;BME280;19250;42.646;26.980;2022-09-16T03:05:05;98265.50;;;22.77;84.88
12799;BME280;19250;42.646;26.980;2022-09-16T03:07:32;98269.03;;;22.56;86.46
12799;BME280;19250;42.646;26.980;2022-09-16T03:10:00;98270.22;;;22.44;87.21
12799;BME280;19250;42.646;26.980;2022-09-16T03:15:37;98267.53;;;22.05;90.34
12799;BME280;19250;42.646;26.980;2022-09-16T03:18:42;98272.13;;;22.43;88.34
12799;BME280;19250;42.646;26.980;2022-09-16T03:21:17;98272.97;;;22.65;86.40
12799;BME280;19250;42.646;26.980;2022-09-16T03:23:51;98275.88;;;22.81;85.51
12799;BME280;19250;42.646;26.980;2022-09-16T03:26:28;98272.75;;;22.72;85.42
12799;BME280;19250;42.646;26.980;2022-09-16T03:29:08;98264.38;;;22.73;85.57
12799;BME280;19250;42.646;26.980;2022-09-16T03:31:44;98275.19;;;22.68;85.90
12799;BME280;19250;42.646;26.980;2022-09-16T03:34:18;98242.44;;;21.82;89.93
12799;BME280;19250;42.646;26.980;2022-09-16T03:36:49;98269.41;;;22.05;90.09
12799;BME280;19250;42.646;26.980;2022-09-16T03:39:17;98272.34;;;22.20;88.98
12799;BME280;19250;42.646;26.980;2022-09-16T03:41:46;98268.03;;;22.02;89.84
12799;BME280;19250;42.646;26.980;2022-09-16T03:44:14;98220.81;;;21.87;89.02
12799;BME280;19250;42.646;26.980;2022-09-16T03:46:41;98265.88;;;22.43;87.59
12799;BME280;19250;42.646;26.980;2022-09-16T03:49:09;98264.16;;;22.37;87.39
12799;BME280;19250;42.646;26.980;2022-09-16T03:51:38;98265.13;;;22.47;86.66
12799;BME280;19250;42.646;26.980;2022-09-16T03:54:05;98258.75;;;22.20;87.11
12799;BME280;19250;42.646;26.980;2022-09-16T03:56:32;98264.38;;;21.58;91.24
12799;BME280;19250;42.646;26.980;2022-09-16T03:59:00;98258.56;;;21.71;91.66
12799;BME280;19250;42.646;26.980;2022-09-16T04:01:27;98252.25;;;21.83;90.76
12799;BME280;19250;42.646;26.980;2022-09-16T04:03:55;98255.47;;;21.80;90.59
12799;BME280;19250;42.646;26.980;2022-09-16T04:06:22;98269.59;;;21.82;90.99
12799;BME280;19250;42.646;26.980;2022-09-16T04:08:51;98293.13;;;21.93;90.79
12799;BME280;19250;42.646;26.980;2022-09-16T04:11:18;98298.78;;;22.08;89.37
12799;BME280;19250;42.646;26.980;2022-09-16T04:13:45;98300.69;;;22.07;89.58
12799;BME280;19250;42.646;26.980;2022-09-16T04:16:18;98285.44;;;22.23;88.48
12799;BME280;19250;42.646;26.980;2022-09-16T04:18:46;98289.84;;;22.07;89.33
12799;BME280;19250;42.646;26.980;2022-09-16T04:21:13;98291.66;;;22.40;87.50
12799;BME280;19250;42.646;26.980;2022-09-16T04:23:41;98290.50;;;22.58;86.32
12799;BME280;19250;42.646;26.980;2022-09-16T04:26:10;98284.66;;;22.44;87.04
12799;BME280;19250;42.646;26.980;2022-09-16T04:28:38;98283.03;;;22.65;85.62
12799;BME280;19250;42.646;26.980;2022-09-16T04:31:06;98282.66;;;22.78;85.04
12799;BME280;19250;42.646;26.980;2022-09-16T04:33:34;98269.28;;;22.76;84.37
12799;BME280;19250;42.646;26.980;2022-09-16T04:36:03;98272.88;;;22.60;85.78
12799;BME280;19250;42.646;26.980;2022-09-16T04:38:30;98262.63;;;22.89;84.78
12799;BME280;19250;42.646;26.980;2022-09-16T04:41:02;98268.91;;;22.90;84.81
12799;BME280;19250;42.646;26.980;2022-09-16T04:43:31;98267.72;;;23.07;84.38
12799;BME280;19250;42.646;26.980;2022-09-16T04:45:59;98268.03;;;22.62;87.73
12799;BME280;19250;42.646;26.980;2022-09-16T04:48:27;98273.13;;;22.59;88.47
12799;BME280;19250;42.646;26.980;2022-09-16T04:51:01;98274.69;;;22.71;88.90
12799;BME280;19250;42.646;26.980;2022-09-16T04:53:29;98272.16;;;22.65;90.05
12799;BME280;19250;42.646;26.980;2022-09-16T04:56:02;98270.47;;;22.86;89.30
12799;BME280;19250;42.646;26.980;2022-09-16T04:58:31;98268.59;;;23.13;87.22
12799;BME280;19250;42.646;26.980;2022-09-16T05:01:06;98270.25;;;23.41;85.27
12799;BME280;19250;42.646;26.980;2022-09-16T05:03:37;98267.47;;;23.36;85.17
12799;BME280;19250;42.646;26.980;2022-09-16T05:06:11;98263.25;;;23.23;86.77
12799;BME280;19250;42.646;26.980;2022-09-16T05:08:38;98258.72;;;23.33;85.86
12799;BME280;19250;42.646;26.980;2022-09-16T05:11:08;98263.53;;;23.48;85.09
12799;BME280;19250;42.646;26.980;2022-09-16T05:13:37;98258.78;;;23.70;84.10
12799;BME280;19250;42.646;26.980;2022-09-16T05:16:07;98265.59;;;23.73;84.05
12799;BME280;19250;42.646;26.980;2022-09-16T05:18:35;98274.00;;;23.66;85.17
12799;BME280;19250;42.646;26.980;2022-09-16T05:21:04;98281.16;;;23.77;84.31
12799;BME280;19250;42.646;26.980;2022-09-16T05:23:32;98262.22;;;23.98;83.16
12799;BME280;19250;42.646;26.980;2022-09-16T05:26:02;98267.25;;;24.11;81.92
12799;BME280;19250;42.646;26.980;2022-09-16T05:28:30;98267.44;;;24.04;82.62
12799;BME280;19250;42.646;26.980;2022-09-16T05:31:08;98267.28;;;24.16;82.81
12799;BME280;19250;42.646;26.980;2022-09-16T05:33:36;98277.19;;;23.58;86.39
12799;BME280;19250;42.646;26.980;2022-09-16T05:36:05;98276.47;;;23.73;86.74
12799;BME280;19250;42.646;26.980;2022-09-16T05:38:32;98276.47;;;24.10;84.59
12799;BME280;19250;42.646;26.980;2022-09-16T05:41:00;98286.13;;;24.22;84.74
12799;BME280;19250;42.646;26.980;2022-09-16T05:43:28;98287.56;;;23.61;88.43
12799;BME280;19250;42.646;26.980;2022-09-16T05:45:55;98293.53;;;24.32;86.42
12799;BME280;19250;42.646;26.980;2022-09-16T05:48:24;98281.81;;;24.88;82.67
12799;BME280;19250;42.646;26.980;2022-09-16T05:50:52;98296.34;;;25.24;79.72
12799;BME280;19250;42.646;26.980;2022-09-16T05:53:20;98291.22;;;25.38;79.07
12799;BME280;19250;42.646;26.980;2022-09-16T05:55:55;98293.53;;;24.84;81.91
12799;BME280;19250;42.646;26.980;2022-09-16T05:58:24;98298.19;;;24.99;80.69
12799;BME280;19250;42.646;26.980;2022-09-16T06:00:57;98278.03;;;25.00;79.94
12799;BME280;19250;42.646;26.980;2022-09-16T06:03:27;98292.28;;;25.22;77.86
12799;BME280;19250;42.646;26.980;2022-09-16T06:05:59;98292.66;;;24.78;80.55
12799;BME280;19250;42.646;26.980;2022-09-16T06:08:28;98290.41;;;25.88;75.39
12799;BME280;19250;42.646;26.980;2022-09-16T06:10:56;98283.03;;;25.93;73.80
12799;BME280;19250;42.646;26.980;2022-09-16T06:13:26;98286.25;;;26.31;71.27
12799;BME280;19250;42.646;26.980;2022-09-16T06:15:53;98273.75;;;25.69;75.15
12799;BME280;19250;42.646;26.980;2022-09-16T06:18:21;98271.22;;;25.07;78.55
12799;BME280;19250;42.646;26.980;2022-09-16T06:20:50;98265.84;;;25.63;76.81
12799;BME280;19250;42.646;26.980;2022-09-16T06:23:18;98270.47;;;25.92;74.92
12799;BME280;19250;42.646;26.980;2022-09-16T06:25:46;98257.06;;;25.81;73.64
12799;BME280;19250;42.646;26.980;2022-09-16T06:28:13;98253.56;;;25.65;74.06
12799;BME280;19250;42.646;26.980;2022-09-16T06:30:41;98248.91;;;25.71;74.19
12799;BME280;19250;42.646;26.980;2022-09-16T06:33:08;98251.91;;;25.49;77.22
12799;BME280;19250;42.646;26.980;2022-09-16T06:35:37;98248.03;;;26.11;72.51
12799;BME280;19250;42.646;26.980;2022-09-16T06:38:06;98248.75;;;26.46;70.33
12799;BME280;19250;42.646;26.980;2022-09-16T06:40:33;98248.78;;;27.00;68.77
12799;BME280;19250;42.646;26.980;2022-09-16T06:43:00;98254.66;;;27.23;64.01
12799;BME280;19250;42.646;26.980;2022-09-16T06:45:27;98258.16;;;26.89;68.00
12799;BME280;19250;42.646;26.980;2022-09-16T06:47:58;98268.06;;;26.70;67.48
12799;BME280;19250;42.646;26.980;2022-09-16T06:50:26;98274.81;;;27.42;66.23
12799;BME280;19250;42.646;26.980;2022-09-16T06:52:53;98271.41;;;27.16;64.96
12799;BME280;19250;42.646;26.980;2022-09-16T06:55:22;98261.50;;;26.71;65.90
12799;BME280;19250;42.646;26.980;2022-09-16T06:57:50;98240.63;;;26.21;69.55
12799;BME280;19250;42.646;26.980;2022-09-16T07:00:17;98235.63;;;26.48;68.67
12799;BME280;19250;42.646;26.980;2022-09-16T07:02:44;98254.06;;;25.87;72.78
12799;BME280;19250;42.646;26.980;2022-09-16T07:05:11;98260.38;;;25.93;71.93
12799;BME280;19250;42.646;26.980;2022-09-16T07:07:39;98280.63;;;26.76;68.48
12799;BME280;19250;42.646;26.980;2022-09-16T07:10:07;98278.09;;;26.06;71.73
12799;BME280;19250;42.646;26.980;2022-09-16T07:12:36;98270.72;;;26.01;72.86
12799;BME280;19250;42.646;26.980;2022-09-16T07:15:04;98278.66;;;25.87;73.20
12799;BME280;19250;42.646;26.980;2022-09-16T07:17:31;98281.41;;;25.92;72.92
12799;BME280;19250;42.646;26.980;2022-09-16T07:19:58;98283.03;;;25.98;72.49
12799;BME280;19250;42.646;26.980;2022-09-16T07:22:29;98294.50;;;26.16;71.83
12799;BME280;19250;42.646;26.980;2022-09-16T07:24:57;98293.16;;;25.83;72.97
12799;BME280;19250;42.646;26.980;2022-09-16T07:27:24;98290.16;;;25.89;72.14
12799;BME280;19250;42.646;26.980;2022-09-16T07:29:53;98301.59;;;25.81;72.66
12799;BME280;19250;42.646;26.980;2022-09-16T07:32:21;98284.69;;;25.64;73.17
12799;BME280;19250;42.646;26.980;2022-09-16T07:34:51;98283.59;;;25.80;72.06
12799;BME280;19250;42.646;26.980;2022-09-16T07:37:18;98281.91;;;26.10;70.61
12799;BME280;19250;42.646;26.980;2022-09-16T07:39:46;98285.03;;;26.72;66.25
12799;BME280;19250;42.646;26.980;2022-09-16T07:42:15;98291.28;;;27.32;63.44
12799;BME280;19250;42.646;26.980;2022-09-16T07:44:42;98291.53;;;27.74;60.82
12799;BME280;19250;42.646;26.980;2022-09-16T07:47:11;98287.06;;;27.88;60.52
12799;BME280;19250;42.646;26.980;2022-09-16T07:49:38;98290.53;;;28.28;57.08
12799;BME280;19250;42.646;26.980;2022-09-16T07:52:06;98282.38;;;28.46;56.80
12799;BME280;19250;42.646;26.980;2022-09-16T07:54:33;98279.38;;;28.90;55.50
12799;BME280;19250;42.646;26.980;2022-09-16T07:57:00;98272.84;;;29.29;52.15
12799;BME280;19250;42.646;26.980;2022-09-16T07:59:28;98268.38;;;28.90;54.37
12799;BME280;19250;42.646;26.980;2022-09-16T08:01:55;98260.75;;;28.87;54.17
12799;BME280;19250;42.646;26.980;2022-09-16T08:04:24;98260.19;;;29.79;50.11
12799;BME280;19250;42.646;26.980;2022-09-16T08:06:51;98258.16;;;29.52;50.62
12799;BME280;19250;42.646;26.980;2022-09-16T08:09:18;98271.84;;;30.35;46.22
12799;BME280;19250;42.646;26.980;2022-09-16T08:11:47;98269.53;;;29.45;50.59
12799;BME280;19250;42.646;26.980;2022-09-16T08:14:14;98272.47;;;29.86;49.12
12799;BME280;19250;42.646;26.980;2022-09-16T08:16:42;98268.59;;;30.74;44.56
12799;BME280;19250;42.646;26.980;2022-09-16T08:19:09;98266.84;;;31.05;43.33
12799;BME280;19250;42.646;26.980;2022-09-16T08:21:38;98277.88;;;31.05;43.54
12799;BME280;19250;42.646;26.980;2022-09-16T08:24:05;98278.91;;;30.82;43.15
12799;BME280;19250;42.646;26.980;2022-09-16T08:26:32;98270.34;;;30.97;41.67
12799;BME280;19250;42.646;26.980;2022-09-16T08:29:00;98274.00;;;31.42;40.76
12799;BME280;19250;42.646;26.980;2022-09-16T08:31:27;98280.69;;;31.27;40.37
12799;BME280;19250;42.646;26.980;2022-09-16T08:33:54;98283.47;;;31.14;39.95
12799;BME280;19250;42.646;26.980;2022-09-16T08:36:23;98277.88;;;31.05;39.98
12799;BME280;19250;42.646;26.980;2022-09-16T08:38:55;98278.50;;;30.75;41.10
12799;BME280;19250;42.646;26.980;2022-09-16T08:41:34;98267.28;;;30.85;40.40
12799;BME280;19250;42.646;26.980;2022-09-16T08:44:17;98282.53;;;31.18;39.29
12799;BME280;19250;42.646;26.980;2022-09-16T08:46:51;98281.31;;;31.24;39.56
12799;BME280;19250;42.646;26.980;2022-09-16T08:49:24;98245.38;;;30.66;39.98
12799;BME280;19250;42.646;26.980;2022-09-16T08:51:54;98255.91;;;31.50;37.79
12799;BME280;19250;42.646;26.980;2022-09-16T08:54:27;98275.09;;;31.19;38.65
12799;BME280;19250;42.646;26.980;2022-09-16T08:57:00;98266.34;;;31.39;38.49
12799;BME280;19250;42.646;26.980;2022-09-16T08:59:33;98265.59;;;31.25;37.75
12799;BME280;19250;42.646;26.980;2022-09-16T09:02:23;98256.19;;;31.62;37.24
12799;BME280;19250;42.646;26.980;2022-09-16T09:04:53;98258.94;;;32.46;35.66
12799;BME280;19250;42.646;26.980;2022-09-16T09:07:27;98254.47;;;32.67;34.85
12799;BME280;19250;42.646;26.980;2022-09-16T09:10:10;98247.94;;;33.36;33.92
12799;BME280;19250;42.646;26.980;2022-09-16T09:12:44;98244.97;;;32.90;33.65
12799;BME280;19250;42.646;26.980;2022-09-16T09:15:36;98188.19;;;32.58;33.90
12799;BME280;19250;42.646;26.980;2022-09-16T09:18:19;98241.03;;;32.91;33.32
12799;BME280;19250;42.646;26.980;2022-09-16T09:20:55;98238.31;;;34.40;31.36
12799;BME280;19250;42.646;26.980;2022-09-16T09:23:36;98245.66;;;33.56;32.04
12799;BME280;19250;42.646;26.980;2022-09-16T09:26:15;98246.66;;;33.08;32.79
12799;BME280;19250;42.646;26.980;2022-09-16T09:29:01;98240.09;;;32.87;33.30
12799;BME280;19250;42.646;26.980;2022-09-16T09:31:38;98240.69;;;32.75;32.35
12799;BME280;19250;42.646;26.980;2022-09-16T09:34:20;98234.91;;;33.46;32.64
12799;BME280;19250;42.646;26.980;2022-09-16T09:37:03;98239.84;;;34.59;29.94
12799;BME280;19250;42.646;26.980;2022-09-16T09:39:48;98140.31;;;33.95;29.91
12799;BME280;19250;42.646;26.980;2022-09-16T09:42:24;98247.03;;;35.18;28.81
12799;BME280;19250;42.646;26.980;2022-09-16T09:44:57;98237.25;;;34.71;29.36
12799;BME280;19250;42.646;26.980;2022-09-16T09:47:30;98242.06;;;35.03;29.82
12799;BME280;19250;42.646;26.980;2022-09-16T09:50:08;98229.94;;;35.16;29.68
12799;BME280;19250;42.646;26.980;2022-09-16T09:52:42;98228.41;;;36.50;27.89
12799;BME280;19250;42.646;26.980;2022-09-16T09:55:15;98230.06;;;36.75;27.07
12799;BME280;19250;42.646;26.980;2022-09-16T09:57:58;98228.88;;;35.83;27.55
12799;BME280;19250;42.646;26.980;2022-09-16T10:00:27;98226.72;;;35.06;29.17
12799;BME280;19250;42.646;26.980;2022-09-16T10:03:01;98224.94;;;35.30;29.04
12799;BME280;19250;42.646;26.980;2022-09-16T10:05:30;98227.06;;;35.99;26.96
12799;BME280;19250;42.646;26.980;2022-09-16T10:08:01;98218.78;;;37.08;26.48
12799;BME280;19250;42.646;26.980;2022-09-16T10:10:32;98222.75;;;36.34;26.83
12799;BME280;19250;42.646;26.980;2022-09-16T10:13:07;98208.63;;;34.50;29.79
12799;BME280;19250;42.646;26.980;2022-09-16T10:15:35;98204.81;;;34.92;29.01
12799;BME280;19250;42.646;26.980;2022-09-16T10:18:10;98200.56;;;34.74;29.54
12799;BME280;19250;42.646;26.980;2022-09-16T10:20:41;98204.41;;;35.02;29.05
12799;BME280;19250;42.646;26.980;2022-09-16T10:23:11;98212.66;;;36.18;27.10
12799;BME280;19250;42.646;26.980;2022-09-16T10:25:40;98207.13;;;36.18;26.85
12799;BME280;19250;42.646;26.980;2022-09-16T10:28:22;98216.03;;;36.47;26.34
12799;BME280;19250;42.646;26.980;2022-09-16T10:30:51;98206.28;;;35.72;27.65
12799;BME280;19250;42.646;26.980;2022-09-16T10:33:23;98204.00;;;35.86;26.92
12799;BME280;19250;42.646;26.980;2022-09-16T10:35:53;98207.97;;;37.58;23.37
12799;BME280;19250;42.646;26.980;2022-09-16T10:38:24;98146.31;;;37.56;23.73
12799;BME280;19250;42.646;26.980;2022-09-16T10:40:53;98193.44;;;38.24;23.16
12799;BME280;19250;42.646;26.980;2022-09-16T10:43:24;98186.50;;;36.67;23.77
12799;BME280;19250;42.646;26.980;2022-09-16T10:45:54;98195.91;;;36.38;24.76
12799;BME280;19250;42.646;26.980;2022-09-16T10:48:26;98183.41;;;36.69;24.23
12799;BME280;19250;42.646;26.980;2022-09-16T10:50:56;98179.22;;;36.75;24.56
12799;BME280;19250;42.646;26.980;2022-09-16T10:53:28;98122.56;;;37.19;24.14
12799;BME280;19250;42.646;26.980;2022-09-16T10:55:58;98164.09;;;37.12;23.64
12799;BME280;19250;42.646;26.980;2022-09-16T10:58:27;98174.34;;;36.84;24.52
12799;BME280;19250;42.646;26.980;2022-09-16T11:01:07;98167.13;;;38.06;23.38
12799;BME280;19250;42.646;26.980;2022-09-16T11:04:04;98168.16;;;38.80;22.26
12799;BME280;19250;42.646;26.980;2022-09-16T11:06:46;98155.09;;;39.60;21.49
12799;BME280;19250;42.646;26.980;2022-09-16T11:09:25;98162.75;;;38.87;21.85
12799;BME280;19250;42.646;26.980;2022-09-16T11:12:05;98145.84;;;36.99;23.61
12799;BME280;19250;42.646;26.980;2022-09-16T11:14:45;98084.19;;;37.84;22.89
12799;BME280;19250;42.646;26.980;2022-09-16T11:17:25;98141.53;;;38.66;21.84
12799;BME280;19250;42.646;26.980;2022-09-16T11:20:18;98152.34;;;38.84;21.16
12799;BME280;19250;42.646;26.980;2022-09-16T11:22:57;98150.13;;;38.58;22.11
12799;BME280;19250;42.646;26.980;2022-09-16T11:25:38;98151.78;;;40.65;20.07
12799;BME280;19250;42.646;26.980;2022-09-16T11:28:23;98147.03;;;39.75;20.35
12799;BME280;19250;42.646;26.980;2022-09-16T11:31:02;98143.59;;;41.39;18.87
12799;BME280;19250;42.646;26.980;2022-09-16T11:33:35;98137.72;;;38.90;20.57
12799;BME280;19250;42.646;26.980;2022-09-16T11:36:15;98134.16;;;38.08;21.83
12799;BME280;19250;42.646;26.980;2022-09-16T11:38:57;98133.25;;;40.08;19.77
12799;BME280;19250;42.646;26.980;2022-09-16T11:41:30;98127.16;;;39.57;19.47
12799;BME280;19250;42.646;26.980;2022-09-16T11:44:16;98125.13;;;39.57;19.34
12799;BME280;19250;42.646;26.980;2022-09-16T11:46:57;98134.94;;;39.09;20.06
12799;BME280;19250;42.646;26.980;2022-09-16T11:49:42;98127.50;;;39.55;19.40
12799;BME280;19250;42.646;26.980;2022-09-16T11:52:22;98123.56;;;38.80;20.61
12799;BME280;19250;42.646;26.980;2022-09-16T11:55:17;98109.81;;;39.90;19.42
12799;BME280;19250;42.646;26.980;2022-09-16T11:57:51;98099.06;;;38.73;20.23
12799;BME280;19250;42.646;26.980;2022-09-16T12:00:20;98106.84;;;38.99;20.44
12799;BME280;19250;42.646;26.980;2022-09-16T12:02:54;98088.53;;;37.38;21.20
12799;BME280;19250;42.646;26.980;2022-09-16T12:05:27;98091.47;;;37.88;21.00
12799;BME280;19250;42.646;26.980;2022-09-16T12:08:02;98083.09;;;37.14;22.05
12799;BME280;19250;42.646;26.980;2022-09-16T12:10:36;98073.06;;;37.40;21.69
12799;BME280;19250;42.646;26.980;2022-09-16T12:13:08;98079.84;;;37.39;21.66
12799;BME280;19250;42.646;26.980;2022-09-16T12:15:42;98076.56;;;37.37;21.75
12799;BME280;19250;42.646;26.980;2022-09-16T12:18:17;98074.75;;;37.73;21.69
12799;BME280;19250;42.646;26.980;2022-09-16T12:20:49;98059.69;;;38.55;20.77
12799;BME280;19250;42.646;26.980;2022-09-16T12:23:19;98059.63;;;40.19;19.79
12799;BME280;19250;42.646;26.980;2022-09-16T12:26:01;98053.97;;;39.06;20.20
12799;BME280;19250;42.646;26.980;2022-09-16T12:28:34;98046.41;;;38.33;21.04
12799;BME280;19250;42.646;26.980;2022-09-16T12:31:12;98053.59;;;39.27;19.83
12799;BME280;19250;42.646;26.980;2022-09-16T12:33:48;98052.25;;;39.62;19.86
12799;BME280;19250;42.646;26.980;2022-09-16T12:36:21;98037.84;;;38.07;20.64
12799;BME280;19250;42.646;26.980;2022-09-16T12:38:51;98042.97;;;38.94;20.40
12799;BME280;19250;42.646;26.980;2022-09-16T12:41:35;98042.28;;;38.62;20.62
12799;BME280;19250;42.646;26.980;2022-09-16T12:44:32;98040.06;;;40.19;19.81
12799;BME280;19250;42.646;26.980;2022-09-16T12:47:24;98035.34;;;40.01;19.76
12799;BME280;19250;42.646;26.980;2022-09-16T12:50:34;98018.81;;;42.36;17.60
12799;BME280;19250;42.646;26.980;2022-09-16T12:53:34;98022.88;;;42.49;17.59
12799;BME280;19250;42.646;26.980;2022-09-16T12:56:08;98014.09;;;40.19;18.94
12799;BME280;19250;42.646;26.980;2022-09-16T12:59:13;98021.97;;;39.64;19.20
12799;BME280;19250;42.646;26.980;2022-09-16T13:01:49;98019.63;;;40.71;18.76
12799;BME280;19250;42.646;26.980;2022-09-16T13:04:20;97924.94;;;41.10;18.02
12799;BME280;19250;42.646;26.980;2022-09-16T13:06:51;98016.66;;;41.24;18.15
12799;BME280;19250;42.646;26.980;2022-09-16T13:09:22;97986.59;;;39.04;19.93
12799;BME280;19250;42.646;26.980;2022-09-16T13:11:54;98014.94;;;38.67;20.49
12799;BME280;19250;42.646;26.980;2022-09-16T13:14:26;98017.34;;;37.21;21.66
12799;BME280;19250;42.646;26.980;2022-09-16T13:16:57;98008.56;;;37.35;21.79
12799;BME280;19250;42.646;26.980;2022-09-16T13:19:38;97995.78;;;37.46;21.48
12799;BME280;19250;42.646;26.980;2022-09-16T13:22:29;98001.06;;;38.17;21.17